Rechercher aéroport 
image banner adimage banner adimage banner ad
image banner ad

29CA - Landells

Situé à Desert Hot Springs, United States

ICAO - 29CA, IATA -

Données fournies par Airmate  

Information générale

Coordonnées: N33°55'18" W116°27'12"
Élévation : 940 feet MSL.
Variation magnétique : 13° East
Voir autres Aéroports à California

Données opérationnelles

Special qualification required
Heure actuelle UTC:
Heure actuelle locale:
Météo à : KPSP - Palm Springs Intl ( 11 km )
METAR: KPSP 300153Z AUTO 32016KT 10SM CLR 42/14 A2971 RMK AO2 SLP053 T04220139
TAF: KPSP 292325Z 3000/3024 33012G20KT P6SM FEW200 FM300600 33006KT P6SM SCT200
Voir NOTAMs / SUP AIP / TFR affectant cet aéroport [VIEW]
Fréquences de communication: [VIEW]

Pistes:

Coordonnées de l'aéroport

Adresse: Desert Hot Springs United States

Vue satellite de 29CA